createdAt,value
2022-10-20T00:05:18.597Z,880.52321
2022-10-20T00:20:20.883Z,821.24252
2022-10-20T00:35:23.440Z,800.33986
2022-10-20T00:50:25.790Z,779.18552
2022-10-20T01:05:28.309Z,785.23912
2022-10-20T01:20:30.980Z,791.83038
2022-10-20T01:35:33.282Z,782.20061
2022-10-20T01:50:35.494Z,789.18064
2022-10-20T02:05:37.768Z,788.30133
2022-10-20T02:20:40.037Z,790.94516
2022-10-20T02:35:42.217Z,794.49797
2022-10-20T02:50:44.659Z,766.52271
2022-10-20T03:05:46.863Z,784.8036
2022-10-20T03:20:49.066Z,793.60678
2022-10-20T03:35:51.370Z,803.97777
2022-10-20T03:50:53.589Z,814.62341
2022-10-20T04:05:55.859Z,797.63297
2022-10-20T04:20:58.339Z,782.63324
2022-10-20T04:36:00.568Z,773.22454
2022-10-20T04:51:02.856Z,710.34544
2022-10-20T05:06:05.057Z,771.11766
2022-10-20T05:21:09.303Z,774.4942
2022-10-20T05:36:12.411Z,797.63297
2022-10-20T05:51:15.270Z,821.71943
2022-10-20T06:06:18.045Z,827.97007
2022-10-20T06:21:20.283Z,830.39956
2022-10-20T06:36:22.532Z,860.70609
2022-10-20T06:51:24.718Z,843.26629
2022-10-20T07:06:26.901Z,850.87242
2022-10-20T07:21:32.559Z,876.70434
2022-10-20T07:36:38.607Z,887.70439
2022-10-20T07:51:41.038Z,914.08319
2022-10-20T08:06:43.273Z,924.23303
2022-10-20T08:21:45.634Z,969.17858
2022-10-20T08:36:47.910Z,981.27651
2022-10-20T08:51:50.329Z,1006.40164
2022-10-20T09:06:52.556Z,1047.37282
2022-10-20T09:21:54.791Z,1038.91386
2022-10-20T09:36:56.992Z,1085.1232
2022-10-20T09:51:59.221Z,1088.46204
2022-10-20T10:07:01.497Z,1118.57758
2022-10-20T10:22:03.795Z,1120.34888
2022-10-20T10:37:05.973Z,1165.56887
2022-10-20T10:52:08.337Z,1134.72384
2022-10-20T11:07:10.541Z,1132.90683
2022-10-20T11:22:14.352Z,1123.90837
2022-10-20T11:37:17.696Z,1109.80442
2022-10-20T11:52:19.914Z,1090.97968
2022-10-20T12:07:22.200Z,1098.60299
2022-10-20T12:22:24.657Z,1102.88437
2022-10-20T12:37:26.916Z,1093.509
2022-10-20T12:52:29.097Z,1046.59813
2022-10-20T13:07:31.375Z,1016.52349
2022-10-20T13:22:33.745Z,772.80224
2022-10-20T13:37:35.967Z,761.16241
2022-10-20T13:52:38.459Z,823.63263
2022-10-20T14:07:40.883Z,794.49797
2022-10-20T14:22:43.117Z,813.21889
2022-10-20T14:37:45.311Z,812.75179
2022-10-20T14:52:50.301Z,839.76311
2022-10-20T15:07:56.085Z,819.8151
2022-10-20T15:22:58.441Z,801.24625
2022-10-20T15:38:00.938Z,814.1547
2022-10-20T15:53:03.108Z,784.36857
2022-10-20T16:08:05.453Z,769.44041
2022-10-20T16:23:07.922Z,715.37824
2022-10-20T16:38:10.163Z,694.29638
2022-10-20T16:53:12.431Z,675.06565
2022-10-20T17:08:14.718Z,670.58229
2022-10-20T17:23:17.130Z,668.67903
2022-10-20T17:38:19.372Z,674.4215
2022-10-20T17:53:21.594Z,684.87764
2022-10-20T18:08:23.779Z,684.87764
2022-10-20T18:23:26.016Z,701.88055
2022-10-20T18:38:28.223Z,697.03522
2022-10-20T18:53:30.603Z,652.62581
2022-10-20T19:08:32.914Z,608.25627
2022-10-20T19:23:35.388Z,597.9643
2022-10-20T19:38:37.683Z,598.47062
2022-10-20T19:53:39.884Z,607.73327
2022-10-20T20:08:42.364Z,617.28714
2022-10-20T20:23:58.772Z,651.42281
2022-10-20T20:39:02.363Z,667.41618
2022-10-20T20:54:04.561Z,671.21912
2022-10-20T21:09:06.971Z,762.80373
2022-10-20T21:24:09.427Z,702.57824
2022-10-20T21:39:11.670Z,728.6533
2022-10-20T21:54:13.927Z,794.49797
2022-10-20T22:09:16.258Z,872.38028
2022-10-20T22:24:18.480Z,909.38353
2022-10-20T22:39:20.721Z,819.34039
2022-10-20T22:54:23.126Z,821.24252
2022-10-20T23:09:25.388Z,773.6473
2022-10-20T23:24:27.717Z,693.61503
2022-10-20T23:39:30.043Z,688.88277
2022-10-20T23:54:32.298Z,641.37365
